Terminal Aerodrome Forecast
Issued by NWS

Home | Current Version | Previous Version | Text Only | Print | Product List | Glossary On
Versions: 1 2 3 4 5 6 7 8 9 10 11 12 13 14 15 16
000
FTUS43 KMPX 281720
TAFAXN
TAF
KAXN 281720Z 2818/2918 17014G24KT P6SM FEW040 SCT250
     FM290500 18018G28KT P6SM -RA SCT040 BKN090
     FM290800 20015G25KT P6SM -RA SCT020 BKN040
     FM291200 26018G26KT P6SM BKN020 BKN040
     FM291400 31022G34KT P6SM BKN020=

USA.gov is the U.S. government's official web portal to all federal, state and local government web resources and services.